sensor_id;sensor_type;location;lat;lon;timestamp;noise_LAeq;noise_LA_min;noise_LA_max;noise_LA01;noise_LA95
37162;Laerm;68342;52.598;13.450;2023-05-21T00:01:31;38.00;31.95;53.93;;
37162;Laerm;68342;52.598;13.450;2023-05-21T00:03:56;40.01;31.42;52.73;;
37162;Laerm;68342;52.598;13.450;2023-05-21T00:06:23;35.92;30.92;55.46;;
37162;Laerm;68342;52.598;13.450;2023-05-21T00:08:48;35.97;31.90;52.05;;
37162;Laerm;68342;52.598;13.450;2023-05-21T00:11:14;36.68;31.77;56.73;;
37162;Laerm;68342;52.598;13.450;2023-05-21T00:13:39;36.65;31.68;54.68;;
37162;Laerm;68342;52.598;13.450;2023-05-21T00:16:05;41.71;32.80;52.05;;
37162;Laerm;68342;52.598;13.450;2023-05-21T00:18:30;41.35;33.05;53.01;;
37162;Laerm;68342;52.598;13.450;2023-05-21T00:20:56;39.06;32.21;53.82;;
37162;Laerm;68342;52.598;13.450;2023-05-21T00:23:21;36.10;31.61;54.12;;
37162;Laerm;68342;52.598;13.450;2023-05-21T00:25:47;35.90;31.62;51.82;;
37162;Laerm;68342;52.598;13.450;2023-05-21T00:28:12;35.99;31.81;51.21;;
37162;Laerm;68342;52.598;13.450;2023-05-21T00:30:37;35.62;31.09;50.55;;
37162;Laerm;68342;52.598;13.450;2023-05-21T00:33:03;35.69;31.06;49.61;;
37162;Laerm;68342;52.598;13.450;2023-05-21T00:35:29;36.08;31.62;54.19;;
37162;Laerm;68342;52.598;13.450;2023-05-21T00:37:54;35.59;30.89;54.40;;
37162;Laerm;68342;52.598;13.450;2023-05-21T00:40:19;35.54;30.84;52.76;;
37162;Laerm;68342;52.598;13.450;2023-05-21T00:42:45;36.23;31.11;50.92;;
37162;Laerm;68342;52.598;13.450;2023-05-21T00:45:11;36.57;31.93;55.30;;
37162;Laerm;68342;52.598;13.450;2023-05-21T00:47:38;36.38;31.73;47.24;;
37162;Laerm;68342;52.598;13.450;2023-05-21T00:50:05;35.51;31.06;50.82;;
37162;Laerm;68342;52.598;13.450;2023-05-21T00:52:31;35.75;31.00;51.12;;
37162;Laerm;68342;52.598;13.450;2023-05-21T00:54:57;36.54;31.35;51.91;;
37162;Laerm;68342;52.598;13.450;2023-05-21T00:57:23;38.70;31.22;50.37;;
37162;Laerm;68342;52.598;13.450;2023-05-21T00:59:49;36.88;31.60;50.39;;
37162;Laerm;68342;52.598;13.450;2023-05-21T01:02:15;35.65;31.05;55.64;;
37162;Laerm;68342;52.598;13.450;2023-05-21T01:04:42;36.60;31.12;54.23;;
37162;Laerm;68342;52.598;13.450;2023-05-21T01:07:08;45.02;38.69;54.86;;
37162;Laerm;68342;52.598;13.450;2023-05-21T01:09:33;40.07;32.03;58.68;;
37162;Laerm;68342;52.598;13.450;2023-05-21T01:11:58;40.31;31.65;58.28;;
37162;Laerm;68342;52.598;13.450;2023-05-21T01:14:24;44.86;31.32;58.40;;
37162;Laerm;68342;52.598;13.450;2023-05-21T01:16:50;43.62;30.97;59.60;;
37162;Laerm;68342;52.598;13.450;2023-05-21T01:19:20;44.31;31.45;59.16;;
37162;Laerm;68342;52.598;13.450;2023-05-21T01:21:48;44.65;31.20;60.22;;
37162;Laerm;68342;52.598;13.450;2023-05-21T01:24:14;44.24;31.05;58.73;;
37162;Laerm;68342;52.598;13.450;2023-05-21T01:26:39;43.89;31.54;59.83;;
37162;Laerm;68342;52.598;13.450;2023-05-21T01:29:07;43.31;31.32;61.31;;
37162;Laerm;68342;52.598;13.450;2023-05-21T01:31:42;43.37;30.98;60.42;;
37162;Laerm;68342;52.598;13.450;2023-05-21T01:34:10;43.52;31.54;60.43;;
37162;Laerm;68342;52.598;13.450;2023-05-21T01:36:39;43.13;31.18;59.73;;
37162;Laerm;68342;52.598;13.450;2023-05-21T01:39:50;43.20;31.23;60.91;;
37162;Laerm;68342;52.598;13.450;2023-05-21T01:41:55;45.60;31.30;59.87;;
37162;Laerm;68342;52.598;13.450;2023-05-21T01:44:21;43.61;32.37;61.46;;
37162;Laerm;68342;52.598;13.450;2023-05-21T01:46:47;43.37;32.95;57.53;;
37162;Laerm;68342;52.598;13.450;2023-05-21T01:49:13;43.19;31.56;57.73;;
37162;Laerm;68342;52.598;13.450;2023-05-21T01:51:40;42.72;31.35;56.70;;
37162;Laerm;68342;52.598;13.450;2023-05-21T01:54:05;43.57;31.48;57.50;;
37162;Laerm;68342;52.598;13.450;2023-05-21T01:56:30;43.76;31.46;60.52;;
37162;Laerm;68342;52.598;13.450;2023-05-21T01:58:58;43.62;32.08;56.72;;
37162;Laerm;68342;52.598;13.450;2023-05-21T02:01:24;44.94;32.54;58.23;;
37162;Laerm;68342;52.598;13.450;2023-05-21T02:03:50;43.96;32.88;59.19;;
37162;Laerm;68342;52.598;13.450;2023-05-21T02:06:16;44.03;33.91;56.77;;
37162;Laerm;68342;52.598;13.450;2023-05-21T02:08:41;44.65;32.64;58.80;;
37162;Laerm;68342;52.598;13.450;2023-05-21T02:11:06;45.57;32.76;58.27;;
37162;Laerm;68342;52.598;13.450;2023-05-21T02:13:32;44.28;33.67;57.49;;
37162;Laerm;68342;52.598;13.450;2023-05-21T02:15:57;42.36;34.52;51.80;;
37162;Laerm;68342;52.598;13.450;2023-05-21T02:18:23;41.72;33.76;50.29;;
37162;Laerm;68342;52.598;13.450;2023-05-21T02:20:48;42.28;34.13;51.77;;
37162;Laerm;68342;52.598;13.450;2023-05-21T02:23:13;41.83;34.05;53.48;;
37162;Laerm;68342;52.598;13.450;2023-05-21T02:25:38;41.32;33.09;52.53;;
37162;Laerm;68342;52.598;13.450;2023-05-21T02:28:04;40.87;33.31;55.05;;
37162;Laerm;68342;52.598;13.450;2023-05-21T02:30:30;41.75;34.03;52.98;;
37162;Laerm;68342;52.598;13.450;2023-05-21T02:32:56;42.60;33.60;53.26;;
37162;Laerm;68342;52.598;13.450;2023-05-21T02:35:23;46.73;33.85;61.13;;
37162;Laerm;68342;52.598;13.450;2023-05-21T02:37:48;47.52;34.23;60.59;;
37162;Laerm;68342;52.598;13.450;2023-05-21T02:40:14;44.94;35.65;57.41;;
37162;Laerm;68342;52.598;13.450;2023-05-21T02:42:39;43.59;34.77;56.67;;
37162;Laerm;68342;52.598;13.450;2023-05-21T02:45:06;44.09;35.88;54.89;;
37162;Laerm;68342;52.598;13.450;2023-05-21T02:47:31;43.84;34.62;60.16;;
37162;Laerm;68342;52.598;13.450;2023-05-21T02:49:58;42.15;34.72;53.04;;
37162;Laerm;68342;52.598;13.450;2023-05-21T02:52:23;43.73;34.75;53.88;;
37162;Laerm;68342;52.598;13.450;2023-05-21T02:54:49;45.24;33.82;57.51;;
37162;Laerm;68342;52.598;13.450;2023-05-21T02:57:14;44.29;33.31;58.54;;
37162;Laerm;68342;52.598;13.450;2023-05-21T02:59:39;46.87;33.65;62.12;;
37162;Laerm;68342;52.598;13.450;2023-05-21T03:02:05;48.84;35.31;61.72;;
37162;Laerm;68342;52.598;13.450;2023-05-21T03:04:30;45.58;34.61;60.02;;
37162;Laerm;68342;52.598;13.450;2023-05-21T03:06:57;44.00;34.57;59.11;;
37162;Laerm;68342;52.598;13.450;2023-05-21T03:09:22;44.53;32.83;58.66;;
37162;Laerm;68342;52.598;13.450;2023-05-21T03:11:51;40.14;33.79;57.15;;
37162;Laerm;68342;52.598;13.450;2023-05-21T03:14:16;43.30;33.72;59.69;;
37162;Laerm;68342;52.598;13.450;2023-05-21T03:16:41;45.48;34.18;58.20;;
37162;Laerm;68342;52.598;13.450;2023-05-21T03:19:08;45.28;33.79;65.74;;
37162;Laerm;68342;52.598;13.450;2023-05-21T03:21:33;43.88;34.09;58.25;;
37162;Laerm;68342;52.598;13.450;2023-05-21T03:23:58;45.21;34.15;57.79;;
37162;Laerm;68342;52.598;13.450;2023-05-21T03:26:24;53.71;34.20;72.56;;
37162;Laerm;68342;52.598;13.450;2023-05-21T03:28:53;48.75;34.61;67.05;;
37162;Laerm;68342;52.598;13.450;2023-05-21T03:31:19;45.90;33.88;61.79;;
37162;Laerm;68342;52.598;13.450;2023-05-21T03:33:44;44.57;34.08;60.98;;
37162;Laerm;68342;52.598;13.450;2023-05-21T03:36:10;45.09;33.90;59.27;;
37162;Laerm;68342;52.598;13.450;2023-05-21T03:38:35;45.35;33.22;60.52;;
37162;Laerm;68342;52.598;13.450;2023-05-21T03:41:00;43.84;33.90;58.29;;
37162;Laerm;68342;52.598;13.450;2023-05-21T03:43:25;45.81;34.34;63.86;;
37162;Laerm;68342;52.598;13.450;2023-05-21T03:45:51;44.46;34.80;62.68;;
37162;Laerm;68342;52.598;13.450;2023-05-21T03:48:16;55.71;34.76;73.13;;
37162;Laerm;68342;52.598;13.450;2023-05-21T03:50:42;49.92;35.27;71.21;;
37162;Laerm;68342;52.598;13.450;2023-05-21T03:53:07;47.99;34.67;61.56;;
37162;Laerm;68342;52.598;13.450;2023-05-21T03:55:34;47.02;33.42;61.25;;
37162;Laerm;68342;52.598;13.450;2023-05-21T03:58:00;45.28;33.99;59.48;;
37162;Laerm;68342;52.598;13.450;2023-05-21T04:00:25;45.16;33.62;66.32;;
37162;Laerm;68342;52.598;13.450;2023-05-21T04:02:50;44.33;33.45;59.93;;
37162;Laerm;68342;52.598;13.450;2023-05-21T04:05:16;45.01;34.40;59.60;;
37162;Laerm;68342;52.598;13.450;2023-05-21T04:07:41;48.48;35.09;67.38;;
37162;Laerm;68342;52.598;13.450;2023-05-21T04:10:07;49.33;34.53;66.43;;
37162;Laerm;68342;52.598;13.450;2023-05-21T04:12:32;45.94;33.70;58.48;;
37162;Laerm;68342;52.598;13.450;2023-05-21T04:14:57;44.50;33.95;65.80;;
37162;Laerm;68342;52.598;13.450;2023-05-21T04:17:22;44.32;33.91;58.06;;
37162;Laerm;68342;52.598;13.450;2023-05-21T04:19:50;44.80;33.39;58.53;;
37162;Laerm;68342;52.598;13.450;2023-05-21T04:22:16;47.59;34.11;61.59;;
37162;Laerm;68342;52.598;13.450;2023-05-21T04:24:41;45.77;33.72;57.04;;
37162;Laerm;68342;52.598;13.450;2023-05-21T04:27:07;44.43;33.87;60.59;;
37162;Laerm;68342;52.598;13.450;2023-05-21T04:29:34;44.80;34.30;58.09;;
37162;Laerm;68342;52.598;13.450;2023-05-21T04:31:59;50.19;33.83;72.14;;
37162;Laerm;68342;52.598;13.450;2023-05-21T04:34:24;42.07;33.40;57.89;;
37162;Laerm;68342;52.598;13.450;2023-05-21T04:36:49;43.86;33.74;61.00;;
37162;Laerm;68342;52.598;13.450;2023-05-21T04:39:16;44.84;34.19;60.04;;
37162;Laerm;68342;52.598;13.450;2023-05-21T04:41:41;44.83;33.62;59.93;;
37162;Laerm;68342;52.598;13.450;2023-05-21T04:44:06;44.55;32.69;59.00;;
37162;Laerm;68342;52.598;13.450;2023-05-21T04:46:32;46.08;34.27;67.99;;
37162;Laerm;68342;52.598;13.450;2023-05-21T04:48:58;45.44;32.93;67.07;;
37162;Laerm;68342;52.598;13.450;2023-05-21T04:51:26;43.15;33.45;57.17;;
37162;Laerm;68342;52.598;13.450;2023-05-21T04:53:52;44.13;33.41;56.78;;
37162;Laerm;68342;52.598;13.450;2023-05-21T04:56:18;44.35;33.65;57.88;;
37162;Laerm;68342;52.598;13.450;2023-05-21T04:58:46;44.98;33.62;60.47;;
37162;Laerm;68342;52.598;13.450;2023-05-21T05:01:16;42.99;33.02;59.27;;
37162;Laerm;68342;52.598;13.450;2023-05-21T05:03:41;44.53;34.15;58.20;;
37162;Laerm;68342;52.598;13.450;2023-05-21T05:06:06;48.96;33.53;68.74;;
37162;Laerm;68342;52.598;13.450;2023-05-21T05:08:32;46.63;33.55;65.07;;
37162;Laerm;68342;52.598;13.450;2023-05-21T05:10:58;42.40;33.21;60.35;;
37162;Laerm;68342;52.598;13.450;2023-05-21T05:13:23;43.02;33.95;58.40;;
37162;Laerm;68342;52.598;13.450;2023-05-21T05:15:48;45.21;34.26;61.99;;
37162;Laerm;68342;52.598;13.450;2023-05-21T05:18:13;44.22;34.30;59.35;;
37162;Laerm;68342;52.598;13.450;2023-05-21T05:20:39;43.71;33.90;60.02;;
37162;Laerm;68342;52.598;13.450;2023-05-21T05:23:04;42.21;33.01;58.87;;
37162;Laerm;68342;52.598;13.450;2023-05-21T05:25:29;42.71;33.14;61.09;;
37162;Laerm;68342;52.598;13.450;2023-05-21T05:27:55;43.99;33.91;60.87;;
37162;Laerm;68342;52.598;13.450;2023-05-21T05:30:20;42.83;33.53;57.65;;
37162;Laerm;68342;52.598;13.450;2023-05-21T05:32:45;42.37;34.02;59.67;;
37162;Laerm;68342;52.598;13.450;2023-05-21T05:35:10;45.01;34.91;62.27;;
37162;Laerm;68342;52.598;13.450;2023-05-21T05:37:36;47.60;33.59;66.08;;
37162;Laerm;68342;52.598;13.450;2023-05-21T05:40:01;45.70;34.03;64.00;;
37162;Laerm;68342;52.598;13.450;2023-05-21T05:42:28;43.04;32.95;58.15;;
37162;Laerm;68342;52.598;13.450;2023-05-21T05:44:53;43.47;33.58;59.07;;
37162;Laerm;68342;52.598;13.450;2023-05-21T05:47:18;44.15;33.65;61.37;;
37162;Laerm;68342;52.598;13.450;2023-05-21T05:49:44;44.46;34.61;58.02;;
37162;Laerm;68342;52.598;13.450;2023-05-21T05:52:09;45.57;34.35;64.18;;
37162;Laerm;68342;52.598;13.450;2023-05-21T05:54:34;52.23;35.14;70.44;;
37162;Laerm;68342;52.598;13.450;2023-05-21T05:57:00;44.58;34.00;62.79;;
37162;Laerm;68342;52.598;13.450;2023-05-21T05:59:25;42.77;34.38;57.11;;
37162;Laerm;68342;52.598;13.450;2023-05-21T06:01:50;42.27;34.00;59.60;;
37162;Laerm;68342;52.598;13.450;2023-05-21T06:04:15;42.17;33.40;57.74;;
37162;Laerm;68342;52.598;13.450;2023-05-21T06:06:41;44.48;34.83;62.01;;
37162;Laerm;68342;52.598;13.450;2023-05-21T06:09:06;41.46;35.35;50.67;;
37162;Laerm;68342;52.598;13.450;2023-05-21T06:11:31;41.79;35.84;55.63;;
37162;Laerm;68342;52.598;13.450;2023-05-21T06:13:56;42.74;35.82;53.87;;
37162;Laerm;68342;52.598;13.450;2023-05-21T06:16:24;42.05;35.39;55.88;;
37162;Laerm;68342;52.598;13.450;2023-05-21T06:18:50;42.26;35.70;64.52;;
37162;Laerm;68342;52.598;13.450;2023-05-21T06:21:15;46.51;35.97;63.28;;
37162;Laerm;68342;52.598;13.450;2023-05-21T06:23:40;45.59;35.62;63.00;;
37162;Laerm;68342;52.598;13.450;2023-05-21T06:26:05;44.70;35.07;64.68;;
37162;Laerm;68342;52.598;13.450;2023-05-21T06:28:31;44.14;35.72;57.78;;
37162;Laerm;68342;52.598;13.450;2023-05-21T06:30:56;43.63;35.30;59.23;;
37162;Laerm;68342;52.598;13.450;2023-05-21T06:33:21;44.75;36.04;56.43;;
37162;Laerm;68342;52.598;13.450;2023-05-21T06:35:47;46.08;36.69;60.85;;
37162;Laerm;68342;52.598;13.450;2023-05-21T06:38:12;51.24;36.31;68.05;;
37162;Laerm;68342;52.598;13.450;2023-05-21T06:40:37;48.18;36.57;64.82;;
37162;Laerm;68342;52.598;13.450;2023-05-21T06:43:02;50.48;37.15;66.96;;
37162;Laerm;68342;52.598;13.450;2023-05-21T06:45:29;48.81;36.24;64.57;;
37162;Laerm;68342;52.598;13.450;2023-05-21T06:47:54;45.80;36.00;61.73;;
37162;Laerm;68342;52.598;13.450;2023-05-21T06:50:19;45.11;35.74;71.75;;
37162;Laerm;68342;52.598;13.450;2023-05-21T06:52:45;44.11;36.10;62.40;;
37162;Laerm;68342;52.598;13.450;2023-05-21T06:55:10;41.51;35.35;53.42;;
37162;Laerm;68342;52.598;13.450;2023-05-21T06:57:36;41.62;35.71;55.54;;
37162;Laerm;68342;52.598;13.450;2023-05-21T07:00:01;57.04;35.70;81.83;;
37162;Laerm;68342;52.598;13.450;2023-05-21T07:02:27;42.25;36.64;61.07;;
37162;Laerm;68342;52.598;13.450;2023-05-21T07:04:52;45.40;36.07;60.09;;
37162;Laerm;68342;52.598;13.450;2023-05-21T07:07:17;50.26;35.55;74.63;;
37162;Laerm;68342;52.598;13.450;2023-05-21T07:09:42;46.99;36.08;62.47;;
37162;Laerm;68342;52.598;13.450;2023-05-21T07:12:08;46.86;36.23;61.98;;
37162;Laerm;68342;52.598;13.450;2023-05-21T07:14:33;41.35;35.66;56.51;;
37162;Laerm;68342;52.598;13.450;2023-05-21T07:16:58;43.54;36.78;64.31;;
37162;Laerm;68342;52.598;13.450;2023-05-21T07:19:24;43.70;36.08;59.24;;
37162;Laerm;68342;52.598;13.450;2023-05-21T07:21:49;44.73;36.51;62.05;;
37162;Laerm;68342;52.598;13.450;2023-05-21T07:24:14;48.46;36.81;60.72;;
37162;Laerm;68342;52.598;13.450;2023-05-21T07:26:39;48.98;37.86;62.12;;
37162;Laerm;68342;52.598;13.450;2023-05-21T07:29:05;46.49;37.07;60.61;;
37162;Laerm;68342;52.598;13.450;2023-05-21T07:31:30;44.42;36.72;57.80;;
37162;Laerm;68342;52.598;13.450;2023-05-21T07:33:56;43.33;36.05;58.18;;
37162;Laerm;68342;52.598;13.450;2023-05-21T07:36:21;46.82;36.52;62.62;;
37162;Laerm;68342;52.598;13.450;2023-05-21T07:38:46;47.43;37.24;61.53;;
37162;Laerm;68342;52.598;13.450;2023-05-21T07:41:11;44.90;36.47;62.89;;
37162;Laerm;68342;52.598;13.450;2023-05-21T07:43:37;47.02;35.62;67.59;;
37162;Laerm;68342;52.598;13.450;2023-05-21T07:46:02;50.08;37.07;64.79;;
37162;Laerm;68342;52.598;13.450;2023-05-21T07:48:27;43.13;36.52;60.23;;
37162;Laerm;68342;52.598;13.450;2023-05-21T07:50:53;41.64;36.93;55.23;;
37162;Laerm;68342;52.598;13.450;2023-05-21T07:53:18;46.34;37.11;59.44;;
37162;Laerm;68342;52.598;13.450;2023-05-21T07:55:44;48.98;40.83;59.76;;
37162;Laerm;68342;52.598;13.450;2023-05-21T07:58:15;50.16;36.70;66.23;;
37162;Laerm;68342;52.598;13.450;2023-05-21T08:00:42;44.58;36.65;57.48;;
37162;Laerm;68342;52.598;13.450;2023-05-21T08:03:09;44.04;36.50;58.06;;
37162;Laerm;68342;52.598;13.450;2023-05-21T08:05:35;43.82;36.34;65.07;;
37162;Laerm;68342;52.598;13.450;2023-05-21T08:08:01;43.31;36.73;55.11;;
37162;Laerm;68342;52.598;13.450;2023-05-21T08:10:26;42.46;37.63;53.78;;
37162;Laerm;68342;52.598;13.450;2023-05-21T08:12:51;43.31;36.84;67.00;;
37162;Laerm;68342;52.598;13.450;2023-05-21T08:15:16;43.64;37.35;67.55;;
37162;Laerm;68342;52.598;13.450;2023-05-21T08:17:42;43.81;37.19;55.47;;
37162;Laerm;68342;52.598;13.450;2023-05-21T08:20:07;41.58;36.60;54.61;;
37162;Laerm;68342;52.598;13.450;2023-05-21T08:22:32;44.72;37.39;52.15;;
37162;Laerm;68342;52.598;13.450;2023-05-21T08:24:58;43.05;37.64;59.32;;
37162;Laerm;68342;52.598;13.450;2023-05-21T08:27:23;43.17;37.58;58.35;;
37162;Laerm;68342;52.598;13.450;2023-05-21T08:29:48;47.94;37.27;75.51;;
37162;Laerm;68342;52.598;13.450;2023-05-21T08:32:14;43.93;36.93;60.47;;
37162;Laerm;68342;52.598;13.450;2023-05-21T08:34:39;45.76;36.86;66.76;;
37162;Laerm;68342;52.598;13.450;2023-05-21T08:37:04;42.62;37.30;55.87;;
37162;Laerm;68342;52.598;13.450;2023-05-21T08:39:30;41.47;37.60;50.28;;
37162;Laerm;68342;52.598;13.450;2023-05-21T08:41:56;41.37;36.92;54.05;;
37162;Laerm;68342;52.598;13.450;2023-05-21T08:44:25;43.30;37.11;55.04;;
37162;Laerm;68342;52.598;13.450;2023-05-21T08:46:53;47.36;37.56;75.59;;
37162;Laerm;68342;52.598;13.450;2023-05-21T08:49:22;47.23;36.93;63.45;;
37162;Laerm;68342;52.598;13.450;2023-05-21T08:51:49;48.47;36.64;64.88;;
37162;Laerm;68342;52.598;13.450;2023-05-21T08:54:15;43.81;37.21;68.07;;
37162;Laerm;68342;52.598;13.450;2023-05-21T08:56:40;43.15;37.70;57.41;;
37162;Laerm;68342;52.598;13.450;2023-05-21T08:59:11;43.32;37.75;63.12;;
37162;Laerm;68342;52.598;13.450;2023-05-21T09:01:37;41.77;37.60;54.28;;
37162;Laerm;68342;52.598;13.450;2023-05-21T09:04:02;45.41;37.30;63.91;;
37162;Laerm;68342;52.598;13.450;2023-05-21T09:06:28;44.89;37.38;57.56;;
37162;Laerm;68342;52.598;13.450;2023-05-21T09:08:56;43.80;37.18;63.84;;
37162;Laerm;68342;52.598;13.450;2023-05-21T09:11:23;41.68;36.93;58.73;;
37162;Laerm;68342;52.598;13.450;2023-05-21T09:13:49;42.45;37.62;56.83;;
37162;Laerm;68342;52.598;13.450;2023-05-21T09:16:15;42.44;36.51;54.99;;
37162;Laerm;68342;52.598;13.450;2023-05-21T09:18:40;44.24;37.22;60.91;;
37162;Laerm;68342;52.598;13.450;2023-05-21T09:21:21;44.00;37.56;61.28;;
37162;Laerm;68342;52.598;13.450;2023-05-21T09:23:51;45.47;38.45;60.23;;
37162;Laerm;68342;52.598;13.450;2023-05-21T09:26:16;44.05;36.86;64.09;;
37162;Laerm;68342;52.598;13.450;2023-05-21T09:28:41;42.92;36.32;61.17;;
37162;Laerm;68342;52.598;13.450;2023-05-21T09:31:07;45.11;36.83;62.57;;
37162;Laerm;68342;52.598;13.450;2023-05-21T09:33:32;47.44;37.87;60.77;;
37162;Laerm;68342;52.598;13.450;2023-05-21T09:35:57;44.48;38.12;58.75;;
37162;Laerm;68342;52.598;13.450;2023-05-21T09:38:23;43.13;38.68;61.29;;
37162;Laerm;68342;52.598;13.450;2023-05-21T09:40:49;41.96;37.53;55.75;;
37162;Laerm;68342;52.598;13.450;2023-05-21T09:43:15;44.04;38.28;54.78;;
37162;Laerm;68342;52.598;13.450;2023-05-21T09:45:50;46.70;37.85;63.61;;
37162;Laerm;68342;52.598;13.450;2023-05-21T09:48:15;46.74;38.03;68.66;;
37162;Laerm;68342;52.598;13.450;2023-05-21T09:50:41;47.96;42.41;67.37;;
37162;Laerm;68342;52.598;13.450;2023-05-21T09:53:10;47.50;42.38;64.91;;
37162;Laerm;68342;52.598;13.450;2023-05-21T09:55:35;47.01;42.15;64.42;;
37162;Laerm;68342;52.598;13.450;2023-05-21T09:58:01;46.87;41.77;60.33;;
37162;Laerm;68342;52.598;13.450;2023-05-21T10:00:28;47.49;42.83;58.57;;
37162;Laerm;68342;52.598;13.450;2023-05-21T10:02:54;46.96;42.35;56.40;;
37162;Laerm;68342;52.598;13.450;2023-05-21T10:05:20;46.49;42.41;54.57;;
37162;Laerm;68342;52.598;13.450;2023-05-21T10:07:51;46.54;39.90;67.34;;
37162;Laerm;68342;52.598;13.450;2023-05-21T10:10:20;46.41;39.27;60.50;;
37162;Laerm;68342;52.598;13.450;2023-05-21T10:12:54;48.90;38.29;66.88;;
37162;Laerm;68342;52.598;13.450;2023-05-21T10:15:22;48.67;39.07;66.21;;
37162;Laerm;68342;52.598;13.450;2023-05-21T10:17:48;46.73;39.84;61.51;;
37162;Laerm;68342;52.598;13.450;2023-05-21T10:20:13;45.80;40.89;59.56;;
37162;Laerm;68342;52.598;13.450;2023-05-21T10:22:39;45.14;40.05;62.74;;
37162;Laerm;68342;52.598;13.450;2023-05-21T10:25:07;46.81;40.14;60.21;;
37162;Laerm;68342;52.598;13.450;2023-05-21T10:27:36;45.72;39.38;57.88;;
37162;Laerm;68342;52.598;13.450;2023-05-21T10:30:03;43.85;38.36;56.45;;
37162;Laerm;68342;52.598;13.450;2023-05-21T10:32:30;44.48;39.05;55.80;;
37162;Laerm;68342;52.598;13.450;2023-05-21T10:34:55;45.13;39.07;60.67;;
37162;Laerm;68342;52.598;13.450;2023-05-21T10:37:24;49.67;40.63;76.45;;
37162;Laerm;68342;52.598;13.450;2023-05-21T10:39:53;47.23;39.65;62.61;;
37162;Laerm;68342;52.598;13.450;2023-05-21T10:55:34;45.24;38.79;61.70;;
37162;Laerm;68342;52.598;13.450;2023-05-21T10:58:15;45.85;40.04;59.48;;
37162;Laerm;68342;52.598;13.450;2023-05-21T11:00:46;47.85;39.88;65.03;;
37162;Laerm;68342;52.598;13.450;2023-05-21T11:03:12;48.82;39.54;69.54;;
37162;Laerm;68342;52.598;13.450;2023-05-21T11:05:52;48.11;39.81;61.48;;
37162;Laerm;68342;52.598;13.450;2023-05-21T11:10:56;43.95;39.06;58.79;;
37162;Laerm;68342;52.598;13.450;2023-05-21T11:13:22;43.77;38.96;58.03;;
37162;Laerm;68342;52.598;13.450;2023-05-21T11:19:15;46.70;39.10;61.66;;
37162;Laerm;68342;52.598;13.450;2023-05-21T11:21:08;46.10;39.18;60.96;;
37162;Laerm;68342;52.598;13.450;2023-05-21T11:26:21;45.94;39.54;62.87;;
37162;Laerm;68342;52.598;13.450;2023-05-21T11:31:28;44.71;38.15;64.42;;
37162;Laerm;68342;52.598;13.450;2023-05-21T11:36:47;47.28;39.86;61.11;;
37162;Laerm;68342;52.598;13.450;2023-05-21T11:39:14;45.88;39.05;57.81;;
37162;Laerm;68342;52.598;13.450;2023-05-21T11:44:37;44.09;38.86;58.46;;
37162;Laerm;68342;52.598;13.450;2023-05-21T11:47:05;43.38;38.55;60.20;;
37162;Laerm;68342;52.598;13.450;2023-05-21T11:49:31;44.88;38.22;67.97;;
37162;Laerm;68342;52.598;13.450;2023-05-21T11:51:58;45.17;39.85;62.46;;
37162;Laerm;68342;52.598;13.450;2023-05-21T11:54:23;46.07;40.01;67.94;;
37162;Laerm;68342;52.598;13.450;2023-05-21T11:56:49;46.93;39.73;74.97;;
37162;Laerm;68342;52.598;13.450;2023-05-21T11:59:15;46.37;40.20;58.35;;
37162;Laerm;68342;52.598;13.450;2023-05-21T12:01:41;46.21;38.78;59.82;;
37162;Laerm;68342;52.598;13.450;2023-05-21T12:04:07;45.18;38.99;56.56;;
37162;Laerm;68342;52.598;13.450;2023-05-21T12:06:32;46.15;39.93;59.40;;
37162;Laerm;68342;52.598;13.450;2023-05-21T12:08:58;46.51;39.14;68.86;;
37162;Laerm;68342;52.598;13.450;2023-05-21T12:11:23;48.62;41.58;60.62;;
37162;Laerm;68342;52.598;13.450;2023-05-21T12:13:50;47.23;40.73;59.80;;
37162;Laerm;68342;52.598;13.450;2023-05-21T12:16:16;45.36;39.21;64.52;;
37162;Laerm;68342;52.598;13.450;2023-05-21T12:18:41;47.68;39.30;64.90;;
37162;Laerm;68342;52.598;13.450;2023-05-21T12:21:07;58.26;38.89;91.20;;
37162;Laerm;68342;52.598;13.450;2023-05-21T12:23:32;44.91;39.60;62.09;;
37162;Laerm;68342;52.598;13.450;2023-05-21T12:25:58;45.86;38.92;60.93;;
37162;Laerm;68342;52.598;13.450;2023-05-21T12:28:23;45.97;39.40;56.62;;
37162;Laerm;68342;52.598;13.450;2023-05-21T12:30:49;43.63;38.11;59.44;;
37162;Laerm;68342;52.598;13.450;2023-05-21T12:33:15;43.69;38.61;57.13;;
37162;Laerm;68342;52.598;13.450;2023-05-21T12:35:43;43.04;38.43;56.18;;
37162;Laerm;68342;52.598;13.450;2023-05-21T12:38:09;42.71;38.21;56.72;;
37162;Laerm;68342;52.598;13.450;2023-05-21T12:40:34;43.77;38.48;56.63;;
37162;Laerm;68342;52.598;13.450;2023-05-21T12:43:01;43.53;39.05;55.71;;
37162;Laerm;68342;52.598;13.450;2023-05-21T12:45:26;45.86;39.03;56.42;;
37162;Laerm;68342;52.598;13.450;2023-05-21T12:47:53;45.68;39.23;60.98;;
37162;Laerm;68342;52.598;13.450;2023-05-21T12:50:20;43.54;38.49;58.48;;
37162;Laerm;68342;52.598;13.450;2023-05-21T12:52:45;45.81;39.14;58.94;;
37162;Laerm;68342;52.598;13.450;2023-05-21T12:55:14;45.36;38.22;57.73;;
37162;Laerm;68342;52.598;13.450;2023-05-21T12:57:40;45.32;38.87;58.26;;
37162;Laerm;68342;52.598;13.450;2023-05-21T13:00:07;48.85;39.26;62.57;;
37162;Laerm;68342;52.598;13.450;2023-05-21T13:02:38;49.33;45.09;56.92;;
37162;Laerm;68342;52.598;13.450;2023-05-21T13:05:04;49.56;45.48;57.89;;
37162;Laerm;68342;52.598;13.450;2023-05-21T13:07:31;49.59;45.56;59.87;;
37162;Laerm;68342;52.598;13.450;2023-05-21T13:09:57;50.62;46.26;58.78;;
37162;Laerm;68342;52.598;13.450;2023-05-21T13:12:23;49.50;45.34;58.38;;
37162;Laerm;68342;52.598;13.450;2023-05-21T13:14:50;48.96;45.05;57.55;;
37162;Laerm;68342;52.598;13.450;2023-05-21T13:17:16;48.99;45.26;63.13;;
37162;Laerm;68342;52.598;13.450;2023-05-21T13:19:43;49.19;45.41;57.90;;
37162;Laerm;68342;52.598;13.450;2023-05-21T13:22:08;56.27;45.25;75.34;;
37162;Laerm;68342;52.598;13.450;2023-05-21T13:24:35;55.31;45.23;72.68;;
37162;Laerm;68342;52.598;13.450;2023-05-21T13:27:00;49.10;44.64;58.23;;
37162;Laerm;68342;52.598;13.450;2023-05-21T13:29:25;49.46;45.81;56.77;;
37162;Laerm;68342;52.598;13.450;2023-05-21T13:31:50;50.13;45.59;58.91;;
37162;Laerm;68342;52.598;13.450;2023-05-21T13:34:16;50.41;46.34;59.09;;
37162;Laerm;68342;52.598;13.450;2023-05-21T13:36:41;50.35;45.95;59.44;;
37162;Laerm;68342;52.598;13.450;2023-05-21T13:39:06;50.76;45.90;61.73;;
37162;Laerm;68342;52.598;13.450;2023-05-21T13:41:32;49.92;45.80;59.50;;
37162;Laerm;68342;52.598;13.450;2023-05-21T13:43:57;50.52;45.95;66.33;;
37162;Laerm;68342;52.598;13.450;2023-05-21T13:46:23;53.90;44.89;67.88;;
37162;Laerm;68342;52.598;13.450;2023-05-21T13:48:48;50.83;45.48;62.56;;
37162;Laerm;68342;52.598;13.450;2023-05-21T13:51:13;49.50;45.77;57.00;;
37162;Laerm;68342;52.598;13.450;2023-05-21T13:53:39;49.92;45.40;63.00;;
37162;Laerm;68342;52.598;13.450;2023-05-21T13:56:04;49.78;45.47;58.35;;